Latest Weather Observations for Lord Howe Island Windy Point

IDN60801

Issued at 5:05 pm EST Monday 1 September 2014 (issued every 30 minutes, with the page automatically refreshed every 10 minutes)

About weather observations | Map of weather stations | Latest weather observations for NSW | Other Formats
Station Details ID: 200715 Name: LORD HOWE ISLAND WINDY POINT Lat: -31.54 Lon: 159.07 Height: 4.0 m
Data from the previous 72 hours. | See also: Recent months for locations in New South Wales
Date/Time
EST
Temp
°C
App
Temp
°C
Dew
Point
Rel
Hum
%
Delta-T
°C
Wind Press
QNH
hPa
Press
MSL
hPa
Rain
since 9 am
mm
Dir
 
Spd
km/h
Gust
km/h
Spd
kts
Gust
kts
01/05:00pm - - - - - SW 26 30 14 16 - - -
01/04:30pm - - - - - SW 26 32 14 17 - - -
01/04:00pm - - - - - SW 28 33 15 18 - - -
01/03:30pm - - - - - SW 32 35 17 19 - - -
01/03:00pm - - - - - SW 33 37 18 20 - - -
01/02:30pm - - - - - WSW 32 37 17 20 - - -
01/02:00pm - - - - - WSW 32 35 17 19 - - -
01/01:30pm - - - - - WSW 30 33 16 18 - - -
01/01:00pm - - - - - WSW 30 33 16 18 - - -
01/12:30pm - - - - - WSW 32 35 17 19 - - -
01/12:00pm - - - - - WSW 33 37 18 20 - - -
01/11:30am - - - - - WSW 32 37 17 20 - - -
01/11:00am - - - - - WSW 33 39 18 21 - - -
01/10:30am - - - - - WSW 33 39 18 21 - - -
01/10:00am - - - - - WSW 28 32 15 17 - - -
01/09:30am - - - - - WSW 30 33 16 18 - - -
01/09:00am - - - - - WSW 28 33 15 18 - - -
01/08:30am - - - - - WSW 30 32 16 17 - - -
01/08:00am - - - - - WSW 30 35 16 19 - - -
01/07:30am - - - - - WSW 28 33 15 18 - - -
01/07:00am - - - - - SW 30 35 16 19 - - -
01/06:30am - - - - - SW 30 33 16 18 - - -
01/06:00am - - - - - WSW 28 33 15 18 - - -
01/05:30am - - - - - WSW 28 30 15 16 - - -
01/05:00am - - - - - WSW 30 35 16 19 - - -
01/04:30am - - - - - WSW 30 33 16 18 - - -
01/04:00am - - - - - SW 30 35 16 19 - - -
01/03:30am - - - - - SW 28 33 15 18 - - -
01/03:00am - - - - - WSW 20 26 11 14 - - -
01/02:30am - - - - - SW 26 30 14 16 - - -
01/02:00am - - - - - WSW 26 30 14 16 - - -
01/01:30am - - - - - S 9 20 5 11 - - -
01/01:00am - - - - - SW 26 37 14 20 - - -
01/12:30am - - - - - SW 24 28 13 15 - - -
01/12:00am - - - - - S 17 24 9 13 - - -
 
Date/Time
EST
Temp
°C
App
Temp
°C
Dew
Point
Rel
Hum
%
Delta-T
°C
Wind Press
QNH
hPa
Press
MSL
hPa
Rain
since 9 am
mm
Dir
 
Spd
km/h
Gust
km/h
Spd
kts
Gust
kts
31/11:30pm - - - - - S 20 28 11 15 - - -
31/11:00pm - - - - - SSW 19 26 10 14 - - -
31/10:30pm - - - - - S 19 26 10 14 - - -
31/10:00pm - - - - - SSW 22 28 12 15 - - -
31/09:30pm - - - - - S 15 19 8 10 - - -
31/09:00pm - - - - - SSW 22 28 12 15 - - -
31/08:30pm - - - - - SSW 24 30 13 16 - - -
31/08:00pm - - - - - S 20 22 11 12 - - -
31/07:30pm - - - - - SSW 24 28 13 15 - - -
31/07:00pm - - - - - SSW 22 28 12 15 - - -
31/06:30pm - - - - - SSW 22 28 12 15 - - -
31/06:00pm - - - - - SSW 24 30 13 16 - - -
31/05:30pm - - - - - SSW 22 26 12 14 - - -
31/05:00pm - - - - - SSW 24 28 13 15 - - -
31/04:30pm - - - - - SSW 24 28 13 15 - - -
31/04:00pm - - - - - SSW 24 28 13 15 - - -
31/03:30pm - - - - - SSW 26 30 14 16 - - -
31/03:00pm - - - - - SSW 24 30 13 16 - - -
31/02:30pm - - - - - SSW 24 32 13 17 - - -
31/02:00pm - - - - - SSW 24 30 13 16 - - -
31/01:30pm - - - - - SSW 15 26 8 14 - - -
31/01:00pm - - - - - SSW 15 19 8 10 - - -
31/12:30pm - - - - - S 15 19 8 10 - - -
31/12:00pm - - - - - S 17 26 9 14 - - -
31/11:30am - - - - - S 13 22 7 12 - - -
31/11:00am - - - - - SSE 13 20 7 11 - - -
31/10:30am - - - - - S 13 22 7 12 - - -
31/10:00am - - - - - S 15 28 8 15 - - -
31/09:30am - - - - - S 7 15 4 8 - - -
31/09:00am - - - - - SW 6 22 3 12 - - -
31/08:30am - - - - - SSE 19 39 10 21 - - -
31/08:00am - - - - - S 13 20 7 11 - - -
31/07:30am - - - - - S 13 26 7 14 - - -
31/07:00am - - - - - S 11 20 6 11 - - -
31/06:30am - - - - - S 20 35 11 19 - - -
31/06:00am - - - - - SSE 17 30 9 16 - - -
31/05:30am - - - - - S 13 24 7 13 - - -
31/05:00am - - - - - S 19 39 10 21 - - -
31/04:30am - - - - - ESE 19 26 10 14 - - -
31/04:00am - - - - - SSW 19 44 10 24 - - -
31/03:30am - - - - - ESE 13 22 7 12 - - -
31/03:00am - - - - - SE 17 35 9 19 - - -
31/02:30am - - - - - SE 20 44 11 24 - - -
31/02:00am - - - - - SE 17 32 9 17 - - -
31/01:30am - - - - - SSE 13 24 7 13 - - -
31/01:00am - - - - - SE 13 19 7 10 - - -
31/12:30am - - - - - SE 20 44 11 24 - - -
31/12:00am - - - - - SE 22 56 12 30 - - -
 
Date/Time
EST
Temp
°C
App
Temp
°C
Dew
Point
Rel
Hum
%
Delta-T
°C
Wind Press
QNH
hPa
Press
MSL
hPa
Rain
since 9 am
mm
Dir
 
Spd
km/h
Gust
km/h
Spd
kts
Gust
kts
30/11:30pm - - - - - SSE 28 43 15 23 - - -
30/11:00pm - - - - - SE 30 50 16 27 - - -
30/10:30pm - - - - - SE 28 48 15 26 - - -
30/10:00pm - - - - - SE 26 41 14 22 - - -
30/09:44pm - - - - - ESE 28 46 15 25 - - -
30/09:30pm - - - - - ESE 26 48 14 26 - - -
30/09:00pm - - - - - S 13 22 7 12 - - -
30/08:30pm - - - - - SE 24 43 13 23 - - -
30/08:00pm - - - - - SE 20 33 11 18 - - -
30/07:30pm - - - - - ESE 22 44 12 24 - - -
30/07:00pm - - - - - S 20 39 11 21 - - -
30/06:30pm - - - - - ESE 17 33 9 18 - - -
30/06:00pm - - - - - S 20 35 11 19 - - -
30/05:30pm - - - - - S 20 26 11 14 - - -
30/05:00pm - - - - - SSW 28 37 15 20 - - -
30/04:30pm - - - - - SSW 32 37 17 20 - - -
30/04:00pm - - - - - SSW 30 35 16 19 - - -
30/03:30pm - - - - - SSW 32 35 17 19 - - -
30/03:00pm - - - - - SSW 32 37 17 20 - - -
30/02:30pm - - - - - SSW 32 35 17 19 - - -
30/02:00pm - - - - - SSW 30 35 16 19 - - -
30/01:30pm - - - - - SSW 32 35 17 19 - - -
30/01:00pm - - - - - SSW 28 33 15 18 - - -
30/12:30pm - - - - - SSW 28 32 15 17 - - -
30/12:00pm - - - - - SSW 32 37 17 20 - - -
30/11:30am - - - - - SSW 32 39 17 21 - - -
30/11:00am - - - - - SSW 32 39 17 21 - - -
30/10:30am - - - - - SSW 26 32 14 17 - - -
30/10:00am - - - - - SSW 32 35 17 19 - - -
30/09:30am - - - - - SSW 30 33 16 18 - - -
30/09:00am - - - - - SSW 32 37 17 20 - - -
30/08:30am - - - - - SSW 32 37 17 20 - - -
30/08:00am - - - - - SW 28 33 15 18 - - -
30/07:30am - - - - - SW 26 30 14 16 - - -
30/07:00am - - - - - W 24 30 13 16 - - -
30/06:30am - - - - - WSW 20 22 11 12 - - -
30/06:00am - - - - - SSW 13 20 7 11 - - -
30/05:30am - - - - - SSW 17 20 9 11 - - -
30/05:00am - - - - - W 32 37 17 20 - - -
30/04:30am - - - - - SW 19 24 10 13 - - -
30/04:00am - - - - - SW 24 26 13 14 - - -
30/03:30am - - - - - SW 19 24 10 13 - - -
30/03:00am - - - - - W 22 28 12 15 - - -
30/02:30am - - - - - W 30 33 16 18 - - -
30/02:00am - - - - - W 33 39 18 21 - - -
30/01:30am - - - - - W 37 43 20 23 - - -
30/01:00am - - - - - W 39 46 21 25 - - -
30/12:39am - - - - - W 50 57 27 31 - - -
30/12:30am - - - - - WNW 39 54 21 29 - - -
30/12:00am - - - - - WNW 41 56 22 30 - - -
 
Date/Time
EST
Temp
°C
App
Temp
°C
Dew
Point
Rel
Hum
%
Delta-T
°C
Wind Press
QNH
hPa
Press
MSL
hPa
Rain
since 9 am
mm
Dir
 
Spd
km/h
Gust
km/h
Spd
kts
Gust
kts
29/11:34pm - - - - - WNW 41 59 22 32 - - -
29/11:30pm - - - - - WNW 43 59 23 32 - - -
29/11:00pm - - - - - WNW 52 65 28 35 - - -
29/10:30pm - - - - - W 56 63 30 34 - - -
29/10:00pm - - - - - W 46 65 25 35 - - -
29/09:30pm - - - - - W 50 70 27 38 - - -
29/09:00pm - - - - - W 48 67 26 36 - - -
29/08:54pm - - - - - W 44 63 24 34 - - -
29/08:30pm - - - - - W 56 69 30 37 - - -
29/08:00pm - - - - - W 56 67 30 36 - - -
29/07:30pm - - - - - W 54 63 29 34 - - -
29/07:00pm - - - - - W 50 61 27 33 - - -
29/06:30pm - - - - - W 54 65 29 35 - - -
29/06:00pm - - - - - W 57 67 31 36 - - -
29/05:30pm - - - - - W 48 57 26 31 - - -

Other Formats:

Comma delimited format used in spreadsheet applications
http://www.bom.gov.au/fwo/IDN60801/IDN60801.95995.axf

JavaScript Object Notation format (JSON) in row-major order
http://www.bom.gov.au/fwo/IDN60801/IDN60801.95995.json